Time;durP1;ratioP1;P1;durP2;ratioP2;P2;SDS_P1;SDS_P2;PMS_P1;PMS_P2;Temp;Humidity;BMP_temperature;BMP_pressure;BME280_temperature;BME280_humidity;BME280_pressure;Samples;Min_cycle;Max_cycle;Signal;HPM_P1;HPM_P2
2023/10/20 00:01:29;;;;;;;;;;;;;;;29.43;27.10;96131.44;5075429;28;19924;-93
2023/10/20 00:03:55;;;;;;;;;;;;;;;29.73;26.43;96128.03;5073686;28;20376;-93
2023/10/20 00:06:21;;;;;;;;;;;;;;;28.96;27.67;96135.34;5073389;28;19920;-93
2023/10/20 00:08:47;;;;;;;;;;;;;;;28.20;28.81;96139.53;5077847;28;19928;-92
2023/10/20 00:11:13;;;;;;;;;;;;;;;28.27;28.69;96142.66;5079003;28;19920;-92
2023/10/20 00:13:40;;;;;;;;;;;;;;;29.05;27.58;96143.56;5079552;28;19943;-92
2023/10/20 00:16:06;;;;;;;;;;;;;;;29.91;26.36;96144.47;5073569;28;20023;-92
2023/10/20 00:18:47;;;;;;;;;;;;;;;30.29;25.52;96142.75;5077681;28;20011;-93
2023/10/20 00:21:13;;;;;;;;;;;;;;;30.57;25.34;96135.66;5085155;28;19999;-92
2023/10/20 00:23:39;;;;;;;;;;;;;;;30.81;24.83;96129.31;5073862;28;20377;-92
2023/10/20 00:26:06;;;;;;;;;;;;;;;31.00;24.43;96132.28;5080553;28;20030;-92
2023/10/20 00:28:32;;;;;;;;;;;;;;;31.04;24.14;96124.28;5072675;28;20411;-92
2023/10/20 00:30:58;;;;;;;;;;;;;;;31.04;24.27;96118.63;5078773;28;19920;-93
2023/10/20 00:33:24;;;;;;;;;;;;;;;31.12;23.88;96122.41;5081109;28;19921;-93
2023/10/20 00:35:50;;;;;;;;;;;;;;;31.18;24.27;96123.13;5086475;28;19943;-92
2023/10/20 00:38:16;;;;;;;;;;;;;;;31.21;23.92;96127.72;5074421;28;19931;-93
2023/10/20 00:40:46;;;;;;;;;;;;;;;31.24;24.02;96124.63;5084159;28;19924;-92
2023/10/20 00:43:13;;;;;;;;;;;;;;;30.94;24.43;96125.91;5079343;28;19966;-92
2023/10/20 00:45:40;;;;;;;;;;;;;;;31.01;24.06;96128.16;5086701;28;19920;-93
2023/10/20 00:48:10;;;;;;;;;;;;;;;31.11;24.05;96129.38;5074648;28;20300;-92
2023/10/20 00:50:36;;;;;;;;;;;;;;;30.73;24.54;96114.97;5084197;28;19920;-93
2023/10/20 00:53:03;;;;;;;;;;;;;;;30.16;25.32;96112.19;5077169;28;20422;-92
2023/10/20 00:55:30;;;;;;;;;;;;;;;30.48;25.04;96113.31;5079565;28;20046;-92
2023/10/20 00:57:57;;;;;;;;;;;;;;;30.30;25.04;96102.59;5085007;28;19927;-92
2023/10/20 01:00:23;;;;;;;;;;;;;;;30.09;25.48;96102.19;5077066;28;20383;-93
2023/10/20 01:02:49;;;;;;;;;;;;;;;30.26;25.33;96104.16;5086138;28;19920;-93
2023/10/20 01:05:15;;;;;;;;;;;;;;;29.01;26.86;96099.91;5087107;28;19932;-93
2023/10/20 01:07:42;;;;;;;;;;;;;;;29.06;27.05;96111.16;5087966;28;19916;-92
2023/10/20 01:10:09;;;;;;;;;;;;;;;29.50;26.52;96106.78;5086297;28;19924;-92
2023/10/20 01:12:35;;;;;;;;;;;;;;;30.13;25.82;96106.81;5084207;28;20181;-92
2023/10/20 01:15:07;;;;;;;;;;;;;;;30.58;25.02;96105.28;5079667;28;19921;-92
2023/10/20 01:17:33;;;;;;;;;;;;;;;30.56;25.00;96105.03;5084614;28;19920;-91
2023/10/20 01:20:01;;;;;;;;;;;;;;;29.53;26.47;96106.50;5090718;28;19920;-91
2023/10/20 01:22:27;;;;;;;;;;;;;;;28.71;27.42;96096.78;5088528;28;19920;-91
2023/10/20 01:24:54;;;;;;;;;;;;;;;28.90;27.39;96100.66;5091533;28;20011;-92
2023/10/20 01:27:20;;;;;;;;;;;;;;;29.28;26.94;96099.88;5087887;28;20038;-92
2023/10/20 01:29:47;;;;;;;;;;;;;;;29.49;26.64;96094.69;5085611;28;19970;-92
2023/10/20 01:32:13;;;;;;;;;;;;;;;29.32;26.34;96091.13;5075677;28;19916;-92
2023/10/20 01:34:39;;;;;;;;;;;;;;;29.09;26.79;96078.28;5074987;28;19920;-92
2023/10/20 01:37:06;;;;;;;;;;;;;;;29.54;25.94;96062.81;5088711;28;19924;-92
2023/10/20 01:39:32;;;;;;;;;;;;;;;29.55;25.85;96060.72;5076134;28;19924;-92
2023/10/20 01:41:58;;;;;;;;;;;;;;;29.99;25.65;96055.66;5077375;28;19929;-93
2023/10/20 01:44:24;;;;;;;;;;;;;;;29.57;25.98;96064.56;5083328;28;19916;-92
2023/10/20 01:46:50;;;;;;;;;;;;;;;29.10;26.71;96065.72;5075833;28;20326;-92
2023/10/20 01:49:20;;;;;;;;;;;;;;;29.49;26.25;96059.97;5076384;28;19924;-92
2023/10/20 01:51:46;;;;;;;;;;;;;;;30.07;25.52;96058.72;5075436;28;20440;-91
2023/10/20 01:54:12;;;;;;;;;;;;;;;30.23;25.16;96062.72;5081915;28;20026;-91
2023/10/20 01:56:38;;;;;;;;;;;;;;;29.54;25.81;96056.38;5083480;28;19920;-93
2023/10/20 01:59:04;;;;;;;;;;;;;;;29.16;26.46;96049.50;5085465;28;19982;-93
2023/10/20 02:01:30;;;;;;;;;;;;;;;29.68;25.97;96049.63;5083367;28;19927;-92
2023/10/20 02:03:56;;;;;;;;;;;;;;;29.97;25.55;96046.16;5087649;28;19917;-93
2023/10/20 02:06:22;;;;;;;;;;;;;;;29.58;25.95;96034.22;5089153;28;19920;-92
2023/10/20 02:08:48;;;;;;;;;;;;;;;29.14;26.46;96040.78;5097040;28;20350;-93
2023/10/20 02:11:15;;;;;;;;;;;;;;;28.70;27.04;96035.97;5087916;28;19917;-93
2023/10/20 02:13:42;;;;;;;;;;;;;;;28.49;27.34;96029.00;5087377;28;19927;-93
2023/10/20 02:16:10;;;;;;;;;;;;;;;28.57;27.29;96025.13;5086953;28;19927;-92
2023/10/20 02:18:39;;;;;;;;;;;;;;;29.15;27.09;96014.06;5094472;28;19924;-93
2023/10/20 02:21:07;;;;;;;;;;;;;;;29.48;26.76;96021.69;5087482;28;19920;-92
2023/10/20 02:23:40;;;;;;;;;;;;;;;29.73;26.60;96014.88;5083782;28;19927;-93
2023/10/20 02:26:08;;;;;;;;;;;;;;;29.79;26.47;96026.97;5089200;28;19924;-93
2023/10/20 02:28:34;;;;;;;;;;;;;;;29.82;26.34;96023.09;5097988;28;20349;-92
2023/10/20 02:31:01;;;;;;;;;;;;;;;29.41;27.07;96022.97;5083429;28;19961;-93
2023/10/20 02:33:27;;;;;;;;;;;;;;;28.63;28.02;96016.72;5084685;28;19920;-93
2023/10/20 02:35:56;;;;;;;;;;;;;;;28.48;28.62;96033.88;5088000;28;19920;-92
2023/10/20 02:38:22;;;;;;;;;;;;;;;28.78;27.92;96024.91;5091814;28;19925;-92
2023/10/20 02:40:52;;;;;;;;;;;;;;;29.35;27.27;96020.19;5082175;28;19939;-92
2023/10/20 02:43:19;;;;;;;;;;;;;;;29.42;27.33;96025.31;5076233;28;19966;-92
2023/10/20 02:45:48;;;;;;;;;;;;;;;29.00;27.71;96020.00;5089984;28;19973;-93
2023/10/20 02:48:15;;;;;;;;;;;;;;;28.76;28.46;96028.25;5092596;28;19924;-92
2023/10/20 02:50:41;;;;;;;;;;;;;;;27.81;29.69;96035.03;5075059;28;19916;-91
2023/10/20 02:53:10;;;;;;;;;;;;;;;27.98;29.60;96024.56;5082992;28;19970;-91
2023/10/20 02:55:37;;;;;;;;;;;;;;;28.76;28.57;96019.78;5073231;28;20282;-91
2023/10/20 02:58:03;;;;;;;;;;;;;;;29.37;27.58;96014.00;5085765;28;19974;-91
2023/10/20 03:00:29;;;;;;;;;;;;;;;29.61;27.18;96007.75;5094631;28;19912;-92
2023/10/20 03:02:55;;;;;;;;;;;;;;;29.51;27.17;95998.00;5084262;28;19924;-91
2023/10/20 03:05:21;;;;;;;;;;;;;;;29.81;26.94;96004.56;5084701;28;19916;-93
2023/10/20 03:07:47;;;;;;;;;;;;;;;29.88;26.88;95995.53;5079521;28;19917;-93
2023/10/20 03:10:13;;;;;;;;;;;;;;;29.83;26.84;95996.31;5091197;28;19920;-93
2023/10/20 03:12:39;;;;;;;;;;;;;;;29.58;27.03;96006.72;5092558;28;19972;-93
2023/10/20 03:15:07;;;;;;;;;;;;;;;30.12;26.56;95995.66;5075898;28;19966;-93
2023/10/20 03:17:33;;;;;;;;;;;;;;;29.78;27.01;95994.31;5079027;28;19944;-92
2023/10/20 03:20:00;;;;;;;;;;;;;;;29.35;27.26;95988.31;5079327;28;20368;-92
2023/10/20 03:22:26;;;;;;;;;;;;;;;28.79;28.20;95996.16;5074231;28;20454;-92
2023/10/20 03:24:53;;;;;;;;;;;;;;;29.37;27.46;96000.66;5073912;28;19912;-92
2023/10/20 03:27:19;;;;;;;;;;;;;;;29.74;26.75;95993.78;5089846;28;19969;-92
2023/10/20 03:29:45;;;;;;;;;;;;;;;29.14;27.14;95989.91;5093954;28;19924;-93
2023/10/20 03:32:11;;;;;;;;;;;;;;;28.69;28.24;95989.22;5094377;28;20015;-93
2023/10/20 03:34:37;;;;;;;;;;;;;;;28.46;28.71;95984.84;5096381;28;19955;-93
2023/10/20 03:37:03;;;;;;;;;;;;;;;28.43;28.96;95985.88;5091220;28;19971;-93
2023/10/20 03:39:32;;;;;;;;;;;;;;;29.22;27.94;95983.22;5081586;28;20296;-93
2023/10/20 03:41:58;;;;;;;;;;;;;;;29.06;27.87;95963.44;5080447;28;19920;-93
2023/10/20 03:44:24;;;;;;;;;;;;;;;29.09;27.72;95970.91;5088811;28;20011;-92
2023/10/20 03:46:56;;;;;;;;;;;;;;;29.82;26.94;95950.31;5082778;28;19927;-93
2023/10/20 03:49:22;;;;;;;;;;;;;;;29.88;26.68;95953.88;5086293;28;19920;-91
2023/10/20 03:51:51;;;;;;;;;;;;;;;29.04;27.62;95955.50;5079851;28;19927;-91
2023/10/20 03:54:17;;;;;;;;;;;;;;;28.87;28.21;95951.19;5075929;28;19992;-92
2023/10/20 03:56:44;;;;;;;;;;;;;;;28.96;28.40;95950.91;5081610;28;19921;-91
2023/10/20 03:59:10;;;;;;;;;;;;;;;29.54;27.53;95954.56;5080921;28;19920;-91
2023/10/20 04:01:37;;;;;;;;;;;;;;;30.08;26.65;95944.97;5069017;28;20492;-91
2023/10/20 04:04:04;;;;;;;;;;;;;;;30.17;26.56;95951.59;5079987;28;19943;-91
2023/10/20 04:06:30;;;;;;;;;;;;;;;30.11;26.44;95948.06;5084015;28;20294;-92
2023/10/20 04:08:57;;;;;;;;;;;;;;;30.55;26.24;95956.97;5075295;28;19932;-92
2023/10/20 04:11:23;;;;;;;;;;;;;;;30.86;25.69;95954.84;5076841;28;19920;-92
2023/10/20 04:13:49;;;;;;;;;;;;;;;30.57;25.91;95956.44;5087394;28;19928;-93
2023/10/20 04:16:17;;;;;;;;;;;;;;;29.61;27.21;95951.19;5082671;28;20396;-91
2023/10/20 04:18:43;;;;;;;;;;;;;;;29.29;27.59;95948.75;5084759;28;19935;-91
2023/10/20 04:21:13;;;;;;;;;;;;;;;29.07;28.39;95945.22;5081388;28;20383;-91
2023/10/20 04:23:39;;;;;;;;;;;;;;;29.12;28.38;95945.22;5073697;28;19916;-92
2023/10/20 04:26:15;;;;;;;;;;;;;;;28.93;28.68;95932.94;5071531;28;20032;-93
2023/10/20 04:28:43;;;;;;;;;;;;;;;29.07;28.66;95931.88;5089072;28;19963;-92
2023/10/20 04:45:43;;;;;;;;;;;;;;;29.68;27.64;95931.59;5077865;28;20406;-91
2023/10/20 04:59:05;;;;;;;;;;;;;;;27.98;30.95;95928.66;5082771;28;19947;-91
2023/10/20 05:01:52;;;;;;;;;;;;;;;29.02;29.23;95923.41;5084477;28;20269;-90
2023/10/20 05:04:28;;;;;;;;;;;;;;;29.62;28.29;95927.25;5078203;28;19916;-91
2023/10/20 05:06:58;;;;;;;;;;;;;;;29.86;28.08;95935.88;5082329;28;19920;-91
2023/10/20 05:09:25;;;;;;;;;;;;;;;30.21;27.33;95938.69;5082415;28;19952;-92
2023/10/20 05:11:52;;;;;;;;;;;;;;;29.81;27.87;95936.69;5091548;28;19950;-91
2023/10/20 05:14:18;;;;;;;;;;;;;;;29.38;28.77;95939.97;5079744;28;19921;-91
2023/10/20 05:16:44;;;;;;;;;;;;;;;29.82;28.29;95946.72;5080790;28;19924;-91
2023/10/20 05:19:10;;;;;;;;;;;;;;;30.02;27.70;95935.75;5081163;28;19920;-90
2023/10/20 05:21:38;;;;;;;;;;;;;;;29.94;27.67;95937.59;5090230;28;20058;-89
2023/10/20 05:24:04;;;;;;;;;;;;;;;29.28;28.21;95946.44;5074718;28;19921;-95
2023/10/20 05:26:33;;;;;;;;;;;;;;;29.25;28.39;95950.31;5083292;28;19924;-95
2023/10/20 05:29:00;;;;;;;;;;;;;;;29.71;27.60;95935.44;5080867;28;19928;-93
2023/10/20 05:31:26;;;;;;;;;;;;;;;29.82;27.72;95938.22;5086960;28;19935;-91
2023/10/20 05:33:53;;;;;;;;;;;;;;;29.91;27.42;95940.72;5087910;28;19920;-90
2023/10/20 05:36:19;;;;;;;;;;;;;;;29.76;27.75;95931.81;5078171;28;20275;-95
2023/10/20 05:38:45;;;;;;;;;;;;;;;29.47;28.10;95932.50;5080278;28;19931;-91
2023/10/20 05:41:11;;;;;;;;;;;;;;;29.37;28.36;95929.19;5087449;28;20335;-90
2023/10/20 05:43:38;;;;;;;;;;;;;;;29.63;28.24;95934.44;5080573;28;19920;-90
2023/10/20 05:46:04;;;;;;;;;;;;;;;29.79;27.99;95936.44;5082939;28;19920;-94
2023/10/20 05:48:31;;;;;;;;;;;;;;;29.78;28.00;95938.50;5086700;28;19972;-94
2023/10/20 05:50:57;;;;;;;;;;;;;;;30.43;26.99;95947.06;5083915;28;19927;-94
2023/10/20 05:53:26;;;;;;;;;;;;;;;30.99;26.63;95938.78;5081848;28;19916;-95
2023/10/20 05:55:52;;;;;;;;;;;;;;;31.02;26.59;95943.38;5084378;28;20384;-96
2023/10/20 05:58:19;;;;;;;;;;;;;;;31.05;26.08;95950.81;5095946;28;19927;-95
2023/10/20 06:00:45;;;;;;;;;;;;;;;30.56;27.11;95955.69;5086103;28;19917;-95
2023/10/20 06:03:11;;;;;;;;;;;;;;;30.27;27.64;95945.06;5086182;28;19917;-95
2023/10/20 06:05:38;;;;;;;;;;;;;;;29.44;28.55;95937.13;5102392;28;20011;-96
2023/10/20 06:08:04;;;;;;;;;;;;;;;29.34;28.95;95938.69;5107007;28;20007;-95
2023/10/20 06:10:30;;;;;;;;;;;;;;;29.46;28.62;95937.38;5107040;28;19921;-96
2023/10/20 06:12:57;;;;;;;;;;;;;;;29.76;28.70;95935.41;5091428;28;19927;-96
2023/10/20 06:15:23;;;;;;;;;;;;;;;30.04;28.38;95927.50;5083603;28;19921;-95
2023/10/20 06:17:51;;;;;;;;;;;;;;;30.33;27.98;95937.34;5083520;28;20426;-96
2023/10/20 06:20:18;;;;;;;;;;;;;;;30.55;27.83;95939.97;5084861;28;20379;-95
2023/10/20 06:22:44;;;;;;;;;;;;;;;30.66;28.09;95930.59;5082797;28;19927;-96
2023/10/20 06:25:12;;;;;;;;;;;;;;;30.54;28.46;95915.78;5080005;28;19983;-96
2023/10/20 06:27:39;;;;;;;;;;;;;;;30.27;28.63;95916.03;5080509;28;19924;-96
2023/10/20 06:30:06;;;;;;;;;;;;;;;30.17;28.91;95912.75;5083333;28;20031;-95
2023/10/20 06:33:16;;;;;;;;;;;;;;;29.53;30.11;95919.06;5080422;28;19939;-96
2023/10/20 06:35:32;;;;;;;;;;;;;;;29.58;29.84;95909.78;5091581;28;19912;-96
2023/10/20 06:38:18;;;;;;;;;;;;;;;29.07;30.82;95914.13;5096507;28;19920;-96
2023/10/20 06:40:44;;;;;;;;;;;;;;;28.95;31.08;95916.22;5075624;28;19945;-95
2023/10/20 06:43:10;;;;;;;;;;;;;;;29.37;30.71;95921.47;5079511;28;19924;-96
2023/10/20 06:45:36;;;;;;;;;;;;;;;29.85;30.01;95929.44;5077101;28;20288;-96
2023/10/20 06:48:02;;;;;;;;;;;;;;;29.92;30.12;95923.22;5092727;28;19917;-95
2023/10/20 06:50:29;;;;;;;;;;;;;;;29.82;30.29;95932.56;5085309;28;19923;-95
2023/10/20 06:52:55;;;;;;;;;;;;;;;30.38;29.30;95930.88;5073795;28;19924;-96
2023/10/20 06:55:22;;;;;;;;;;;;;;;30.18;29.59;95919.94;5075927;28;20459;-96
2023/10/20 06:57:48;;;;;;;;;;;;;;;30.37;29.53;95918.00;5075698;28;20368;-95
2023/10/20 07:00:17;;;;;;;;;;;;;;;31.12;28.47;95913.38;5082792;28;19990;-96
2023/10/20 07:02:43;;;;;;;;;;;;;;;31.59;27.68;95913.03;5082330;28;19916;-96
2023/10/20 07:05:10;;;;;;;;;;;;;;;30.83;29.15;95916.28;5075849;28;19973;-96
2023/10/20 07:07:36;;;;;;;;;;;;;;;30.01;30.52;95910.81;5075220;28;19920;-95
2023/10/20 07:10:03;;;;;;;;;;;;;;;29.06;32.11;95907.72;5073449;28;20027;-96
2023/10/20 07:12:29;;;;;;;;;;;;;;;29.77;31.75;95896.59;5074891;28;19923;-95
2023/10/20 07:14:55;;;;;;;;;;;;;;;30.35;30.85;95886.63;5073244;28;19916;-95
2023/10/20 07:17:21;;;;;;;;;;;;;;;30.15;30.65;95884.22;5074840;28;20384;-96
2023/10/20 07:19:47;;;;;;;;;;;;;;;30.30;30.63;95890.22;5074796;28;19923;-95
2023/10/20 07:22:13;;;;;;;;;;;;;;;30.63;30.59;95886.34;5098143;28;19926;-93
2023/10/20 07:24:39;;;;;;;;;;;;;;;30.64;30.24;95885.78;5112718;28;19920;-95
2023/10/20 07:27:05;;;;;;;;;;;;;;;31.02;30.11;95883.84;5094352;28;19916;-95
2023/10/20 07:29:31;;;;;;;;;;;;;;;30.61;30.33;95891.78;5092053;28;19923;-94
2023/10/20 07:31:58;;;;;;;;;;;;;;;30.74;31.16;95884.16;5083296;28;19920;-95
2023/10/20 07:34:25;;;;;;;;;;;;;;;29.90;31.75;95889.03;5076964;28;20011;-94
2023/10/20 07:36:51;;;;;;;;;;;;;;;30.23;31.57;95890.03;5074312;28;19928;-94
2023/10/20 07:39:17;;;;;;;;;;;;;;;29.98;31.39;95892.06;5084221;28;19916;-91
2023/10/20 07:41:44;;;;;;;;;;;;;;;30.56;30.83;95884.09;5085120;28;20031;-92
2023/10/20 07:44:10;;;;;;;;;;;;;;;30.84;30.73;95878.88;5083586;28;19916;-94
2023/10/20 07:46:36;;;;;;;;;;;;;;;30.86;30.66;95875.50;5090317;28;19968;-93
2023/10/20 07:49:03;;;;;;;;;;;;;;;31.10;30.40;95869.84;5094305;28;19939;-93
2023/10/20 07:51:29;;;;;;;;;;;;;;;31.15;30.53;95863.34;5094072;28;20011;-93
2023/10/20 07:53:55;;;;;;;;;;;;;;;31.12;30.41;95856.66;5093842;28;19958;-94
2023/10/20 07:56:21;;;;;;;;;;;;;;;30.96;30.62;95860.47;5074468;28;19948;-94
2023/10/20 07:58:48;;;;;;;;;;;;;;;30.65;31.06;95856.19;5085256;28;19963;-92
2023/10/20 08:01:14;;;;;;;;;;;;;;;30.58;31.50;95853.94;5077319;28;19921;-93
2023/10/20 08:03:45;;;;;;;;;;;;;;;30.63;30.87;95850.28;5073693;28;19924;-94
2023/10/20 08:06:11;;;;;;;;;;;;;;;30.55;31.41;95845.75;5073561;28;19924;-92
2023/10/20 08:08:37;;;;;;;;;;;;;;;30.88;31.02;95836.09;5073813;28;19924;-93
2023/10/20 08:11:04;;;;;;;;;;;;;;;30.94;31.28;95846.09;5074179;28;19916;-94
2023/10/20 08:13:31;;;;;;;;;;;;;;;31.03;30.52;95831.53;5073882;28;20284;-94
2023/10/20 08:15:59;;;;;;;;;;;;;;;31.09;31.43;95828.63;5072752;28;20316;-93
2023/10/20 08:18:25;;;;;;;;;;;;;;;30.87;31.56;95828.88;5089575;28;19920;-93
2023/10/20 08:20:52;;;;;;;;;;;;;;;30.80;31.86;95830.25;5093799;28;20010;-92
2023/10/20 08:23:18;;;;;;;;;;;;;;;31.14;31.22;95830.63;5087267;28;20290;-93
2023/10/20 08:25:44;;;;;;;;;;;;;;;30.87;31.00;95841.00;5080849;28;20003;-91
2023/10/20 08:28:10;;;;;;;;;;;;;;;31.40;30.82;95839.28;5074118;28;19963;-92
2023/10/20 08:30:36;;;;;;;;;;;;;;;31.72;30.49;95825.13;5073461;28;20029;-93
2023/10/20 08:33:03;;;;;;;;;;;;;;;31.97;29.92;95823.75;5082910;28;19927;-94
2023/10/20 08:35:30;;;;;;;;;;;;;;;31.59;31.06;95820.19;5073571;28;20290;-93
2023/10/20 08:37:57;;;;;;;;;;;;;;;31.47;30.97;95804.66;5072603;28;19928;-92
2023/10/20 08:40:23;;;;;;;;;;;;;;;31.39;30.71;95798.78;5073373;28;19970;-93
2023/10/20 08:42:49;;;;;;;;;;;;;;;31.52;30.91;95805.88;5073411;28;19985;-93
2023/10/20 08:45:15;;;;;;;;;;;;;;;31.73;30.90;95809.66;5074023;28;19970;-93
2023/10/20 08:47:42;;;;;;;;;;;;;;;31.76;30.35;95809.34;5073278;28;19920;-93
2023/10/20 08:50:11;;;;;;;;;;;;;;;32.17;30.17;95819.50;5074608;28;19921;-93
2023/10/20 08:52:38;;;;;;;;;;;;;;;32.28;29.94;95827.84;5073173;28;19923;-92
2023/10/20 08:55:07;;;;;;;;;;;;;;;32.72;29.51;95818.50;5073430;28;19917;-93
2023/10/20 08:57:33;;;;;;;;;;;;;;;32.98;28.92;95812.78;5072034;28;19970;-93
2023/10/20 08:59:59;;;;;;;;;;;;;;;32.63;29.63;95805.50;5073434;28;19917;-92
2023/10/20 09:02:34;;;;;;;;;;;;;;;32.76;29.64;95801.88;5076938;28;19955;-93
2023/10/20 09:05:00;;;;;;;;;;;;;;;32.95;29.33;95807.44;5093256;28;19923;-93
2023/10/20 09:07:26;;;;;;;;;;;;;;;32.94;29.65;95806.69;5075170;28;20296;-93
2023/10/20 09:09:53;;;;;;;;;;;;;;;33.18;29.68;95811.38;5071873;28;19920;-93
2023/10/20 09:12:19;;;;;;;;;;;;;;;33.14;30.00;95808.09;5073115;28;19923;-93
2023/10/20 09:14:45;;;;;;;;;;;;;;;33.56;29.75;95812.56;5076217;28;20429;-92
2023/10/20 09:17:22;;;;;;;;;;;;;;;33.06;30.31;95807.22;5092282;28;19965;-92
2023/10/20 09:19:48;;;;;;;;;;;;;;;32.71;30.07;95799.91;5088174;28;19964;-90
2023/10/20 09:22:14;;;;;;;;;;;;;;;32.95;30.26;95793.22;5076721;28;20013;-92
2023/10/20 09:24:41;;;;;;;;;;;;;;;32.98;30.24;95784.34;5094095;28;20383;-92
2023/10/20 09:27:07;;;;;;;;;;;;;;;32.60;30.75;95800.16;5087443;28;20007;-92
2023/10/20 09:29:34;;;;;;;;;;;;;;;31.97;31.32;95798.19;5096683;28;19923;-91
2023/10/20 09:32:00;;;;;;;;;;;;;;;31.78;31.35;95803.13;5096773;28;20364;-89
2023/10/20 09:34:26;;;;;;;;;;;;;;;31.65;31.48;95797.41;5082045;28;19928;-92
2023/10/20 09:36:53;;;;;;;;;;;;;;;32.08;30.92;95787.41;5075621;28;20364;-92
2023/10/20 09:39:30;;;;;;;;;;;;;;;32.25;31.00;95777.81;5076644;28;19916;-93
2023/10/20 09:41:57;;;;;;;;;;;;;;;32.13;30.82;95774.41;5076482;28;19920;-91
2023/10/20 09:44:34;;;;;;;;;;;;;;;32.29;31.40;95766.88;5090331;28;19963;-93
2023/10/20 09:47:11;;;;;;;;;;;;;;;32.40;30.94;95770.28;5096338;28;19969;-93
2023/10/20 09:49:39;;;;;;;;;;;;;;;32.51;31.35;95760.81;5096383;28;19923;-93
2023/10/20 09:52:05;;;;;;;;;;;;;;;32.60;30.93;95766.78;5096262;28;19916;-92
2023/10/20 09:54:32;;;;;;;;;;;;;;;31.82;31.76;95778.81;5097776;28;19920;-89
2023/10/20 09:56:58;;;;;;;;;;;;;;;32.62;31.99;95766.25;5089659;28;20438;-94
2023/10/20 09:59:27;;;;;;;;;;;;;;;31.18;33.42;95758.13;5096294;28;20299;-91
2023/10/20 10:01:53;;;;;;;;;;;;;;;32.21;31.86;95754.66;5085346;28;19999;-93
2023/10/20 10:04:27;;;;;;;;;;;;;;;33.06;30.62;95750.34;5076037;28;19913;-92
2023/10/20 10:06:53;;;;;;;;;;;;;;;32.72;31.35;95748.19;5076038;28;19928;-90
2023/10/20 10:09:19;;;;;;;;;;;;;;;32.40;31.59;95746.78;5075716;28;19924;-92
2023/10/20 10:11:45;;;;;;;;;;;;;;;33.03;31.93;95735.16;5076323;28;19917;-93
2023/10/20 10:14:21;;;;;;;;;;;;;;;33.07;31.08;95726.31;5082083;28;19916;-91
2023/10/20 10:16:53;;;;;;;;;;;;;;;33.58;30.24;95726.66;5094320;28;19981;-92
2023/10/20 10:19:21;;;;;;;;;;;;;;;33.68;30.22;95727.72;5075870;28;19917;-91
2023/10/20 10:21:53;;;;;;;;;;;;;;;33.41;30.50;95736.34;5075869;28;20023;-91
2023/10/20 10:24:22;;;;;;;;;;;;;;;33.90;29.66;95730.75;5075550;28;19923;-92
2023/10/20 10:26:50;;;;;;;;;;;;;;;34.14;30.63;95723.16;5075963;28;19916;-92
2023/10/20 10:29:16;;;;;;;;;;;;;;;35.05;28.57;95716.66;5075570;28;19931;-92
2023/10/20 10:31:42;;;;;;;;;;;;;;;35.40;28.19;95721.47;5076262;28;19989;-93
2023/10/20 10:34:09;;;;;;;;;;;;;;;35.51;28.90;95719.63;5075599;28;19917;-92
2023/10/20 10:37:02;;;;;;;;;;;;;;;36.04;27.74;95718.34;5075303;28;19928;-92
2023/10/20 10:39:28;;;;;;;;;;;;;;;36.28;27.62;95719.09;5073281;28;19917;-91
2023/10/20 10:42:04;;;;;;;;;;;;;;;35.95;27.30;95718.13;5075277;28;19923;-92
2023/10/20 10:44:39;;;;;;;;;;;;;;;36.15;27.60;95714.38;5081882;28;19916;-93
2023/10/20 10:47:06;;;;;;;;;;;;;;;35.94;26.51;95705.22;5095597;28;20003;-92
2023/10/20 10:49:32;;;;;;;;;;;;;;;36.11;26.37;95707.50;5075937;28;19920;-91
2023/10/20 10:52:04;;;;;;;;;;;;;;;35.83;27.01;95703.47;5075246;28;19916;-93
2023/10/20 10:54:33;;;;;;;;;;;;;;;36.08;26.20;95709.41;5089790;28;19927;-92
2023/10/20 10:57:00;;;;;;;;;;;;;;;35.85;26.47;95708.63;5095234;28;19916;-93
2023/10/20 10:59:27;;;;;;;;;;;;;;;35.90;26.02;95713.38;5093065;28;19920;-92
2023/10/20 11:01:53;;;;;;;;;;;;;;;35.68;26.39;95719.84;5076067;28;19920;-90
2023/10/20 11:04:19;;;;;;;;;;;;;;;35.87;26.50;95718.13;5074561;28;20019;-91
2023/10/20 11:06:46;;;;;;;;;;;;;;;35.89;26.13;95715.50;5094143;28;20315;-90
2023/10/20 11:09:18;;;;;;;;;;;;;;;35.58;26.15;95722.50;5094877;28;19923;-92
2023/10/20 11:11:46;;;;;;;;;;;;;;;35.45;26.16;95716.19;5094816;28;19916;-92
2023/10/20 11:14:12;;;;;;;;;;;;;;;35.57;26.10;95723.81;5094591;28;19958;-92
2023/10/20 11:16:38;;;;;;;;;;;;;;;35.58;26.44;95727.44;5091290;28;20392;-92
2023/10/20 11:19:04;;;;;;;;;;;;;;;35.37;26.69;95727.59;5074808;28;20494;-91
2023/10/20 11:21:43;;;;;;;;;;;;;;;35.80;26.49;95738.88;5075265;28;19916;-92
2023/10/20 11:24:09;;;;;;;;;;;;;;;35.80;26.72;95749.56;5094759;28;19967;-92
2023/10/20 11:26:37;;;;;;;;;;;;;;;35.89;26.40;95738.34;5092479;28;21179;-92
2023/10/20 11:29:07;;;;;;;;;;;;;;;35.92;26.49;95740.03;5094190;28;20279;-91
2023/10/20 11:31:34;;;;;;;;;;;;;;;36.31;25.95;95746.53;5094184;28;19920;-92
2023/10/20 11:34:01;;;;;;;;;;;;;;;35.54;26.50;95744.97;5094640;28;19916;-91
2023/10/20 11:36:27;;;;;;;;;;;;;;;35.58;26.54;95742.50;5081496;28;20327;-92
2023/10/20 11:38:53;;;;;;;;;;;;;;;35.93;26.43;95737.94;5074489;28;20007;-92
2023/10/20 11:41:19;;;;;;;;;;;;;;;36.28;26.14;95741.97;5073963;28;20011;-92
2023/10/20 11:43:45;;;;;;;;;;;;;;;36.51;25.61;95748.44;5073788;28;20066;-92
2023/10/20 11:46:11;;;;;;;;;;;;;;;36.56;25.81;95750.31;5082957;28;19916;-92
2023/10/20 11:48:37;;;;;;;;;;;;;;;36.60;25.51;95750.69;5087517;28;19951;-92
2023/10/20 11:51:03;;;;;;;;;;;;;;;36.73;24.79;95736.94;5072648;28;20009;-93
2023/10/20 11:53:29;;;;;;;;;;;;;;;36.28;25.29;95744.81;5074397;28;19920;-92
2023/10/20 11:55:55;;;;;;;;;;;;;;;36.46;25.54;95744.44;5078268;28;19923;-92
2023/10/20 11:58:21;;;;;;;;;;;;;;;36.60;25.29;95742.09;5094062;28;20009;-92
2023/10/20 12:00:47;;;;;;;;;;;;;;;36.36;25.90;95746.31;5083210;28;19917;-93
2023/10/20 12:03:14;;;;;;;;;;;;;;;36.49;25.95;95743.28;5074060;28;20250;-93
2023/10/20 12:05:41;;;;;;;;;;;;;;;36.60;25.81;95742.88;5073907;28;20004;-93
2023/10/20 12:08:07;;;;;;;;;;;;;;;36.77;25.42;95741.50;5073914;28;19928;-92
2023/10/20 12:10:33;;;;;;;;;;;;;;;36.13;24.98;95744.84;5074251;28;19917;-90
2023/10/20 12:13:02;;;;;;;;;;;;;;;36.28;25.19;95730.53;5075576;28;19931;-92
2023/10/20 12:15:30;;;;;;;;;;;;;;;36.08;25.75;95731.50;5073604;28;19999;-92
2023/10/20 12:17:57;;;;;;;;;;;;;;;35.80;25.80;95726.72;5073947;28;19924;-91
2023/10/20 12:20:24;;;;;;;;;;;;;;;35.48;26.46;95726.44;5073725;28;19955;-91
2023/10/20 12:22:55;;;;;;;;;;;;;;;35.65;25.59;95723.84;5073791;28;20037;-91
2023/10/20 12:25:21;;;;;;;;;;;;;;;35.89;24.98;95729.00;5073636;28;19916;-92
2023/10/20 12:27:47;;;;;;;;;;;;;;;36.01;25.48;95730.94;5074178;28;20007;-91
2023/10/20 12:30:13;;;;;;;;;;;;;;;36.03;25.27;95722.56;5087600;28;19937;-92
2023/10/20 12:32:42;;;;;;;;;;;;;;;36.30;25.03;95722.91;5095005;28;19922;-91
2023/10/20 12:35:11;;;;;;;;;;;;;;;36.39;24.69;95728.03;5094479;28;19962;-91
2023/10/20 12:37:37;;;;;;;;;;;;;;;36.38;25.26;95720.81;5093853;28;19927;-91
2023/10/20 12:40:03;;;;;;;;;;;;;;;36.16;25.01;95712.25;5079680;28;19927;-91
2023/10/20 12:42:29;;;;;;;;;;;;;;;36.24;25.59;95713.00;5073487;28;19943;-92
2023/10/20 12:44:55;;;;;;;;;;;;;;;36.26;25.19;95701.75;5074077;28;19917;-91
2023/10/20 12:47:22;;;;;;;;;;;;;;;36.26;25.08;95701.75;5082628;28;20388;-91
2023/10/20 12:49:53;;;;;;;;;;;;;;;36.35;25.46;95681.16;5076419;28;20269;-91
2023/10/20 12:52:20;;;;;;;;;;;;;;;36.35;24.69;95676.22;5077095;28;20462;-91
2023/10/20 12:54:46;;;;;;;;;;;;;;;36.18;24.70;95684.63;5076991;28;19921;-91
2023/10/20 12:57:12;;;;;;;;;;;;;;;35.29;25.76;95667.63;5076888;28;20023;-92
2023/10/20 12:59:38;;;;;;;;;;;;;;;35.85;25.49;95660.81;5077029;28;19934;-92
2023/10/20 13:02:04;;;;;;;;;;;;;;;35.62;25.33;95662.94;5077594;28;20307;-91
2023/10/20 13:04:31;;;;;;;;;;;;;;;35.62;25.70;95665.03;5085798;28;19916;-92
2023/10/20 13:06:57;;;;;;;;;;;;;;;35.25;25.60;95661.53;5097334;28;19943;-91
2023/10/20 13:09:23;;;;;;;;;;;;;;;35.34;25.92;95660.22;5096956;28;20380;-88
2023/10/20 13:11:49;;;;;;;;;;;;;;;35.46;25.92;95655.66;5096914;28;20394;-92
2023/10/20 13:14:15;;;;;;;;;;;;;;;35.87;25.18;95660.28;5097273;28;19916;-90